Map

Track Data

SID SEASON NUMBER BASIN SUBBASIN NAME ISO_TIME NATURE LAT LON WMO_WIND WMO_PRES WMO_AGENCY TRACK_TYPE DIST2LAND LANDFALL IFLAG USA_AGENCY USA_ATCF_ID USA_LAT USA_LON USA_RECORD USA_STATUS USA_WIND USA_PRES USA_SSHS USA_R34_NE USA_R34_SE USA_R34_SW USA_R34_NW USA_R50_NE USA_R50_SE USA_R50_SW USA_R50_NW USA_R64_NE USA_R64_SE USA_R64_SW USA_R64_NW USA_POCI USA_ROCI USA_RMW USA_EYE TOKYO_LAT TOKYO_LON TOKYO_GRADE TOKYO_WIND TOKYO_PRES TOKYO_R50_DIR TOKYO_R50_LONG TOKYO_R50_SHORT TOKYO_R30_DIR TOKYO_R30_LONG TOKYO_R30_SHORT TOKYO_LAND CMA_LAT CMA_LON CMA_CAT CMA_WIND CMA_PRES HKO_LAT HKO_LON HKO_CAT HKO_WIND HKO_PRES NEWDELHI_LAT NEWDELHI_LON NEWDELHI_GRADE NEWDELHI_WIND NEWDELHI_PRES NEWDELHI_CI NEWDELHI_DP NEWDELHI_POCI REUNION_LAT REUNION_LON REUNION_TYPE REUNION_WIND REUNION_PRES REUNION_TNUM REUNION_CI REUNION_RMW REUNION_R34_NE REUNION_R34_SE REUNION_R34_SW REUNION_R34_NW REUNION_R50_NE REUNION_R50_SE REUNION_R50_SW REUNION_R50_NW REUNION_R64_NE REUNION_R64_SE REUNION_R64_SW REUNION_R64_NW BOM_LAT BOM_LON BOM_TYPE BOM_WIND BOM_PRES BOM_TNUM BOM_CI BOM_RMW BOM_R34_NE BOM_R34_SE BOM_R34_SW BOM_R34_NW BOM_R50_NE BOM_R50_SE BOM_R50_SW BOM_R50_NW BOM_R64_NE BOM_R64_SE BOM_R64_SW BOM_R64_NW BOM_ROCI BOM_POCI BOM_EYE BOM_POS_METHOD BOM_PRES_METHOD NADI_LAT NADI_LON NADI_CAT NADI_WIND NADI_PRES WELLINGTON_LAT WELLINGTON_LON WELLINGTON_WIND WELLINGTON_PRES DS824_LAT DS824_LON DS824_STAGE DS824_WIND DS824_PRES TD9636_LAT TD9636_LON TD9636_STAGE TD9636_WIND TD9636_PRES TD9635_LAT TD9635_LON TD9635_WIND TD9635_PRES TD9635_ROCI NEUMANN_LAT NEUMANN_LON NEUMANN_CLASS NEUMANN_WIND NEUMANN_PRES MLC_LAT MLC_LON MLC_CLASS MLC_WIND MLC_PRES USA_GUST BOM_GUST BOM_GUST_PER REUNION_GUST REUNION_GUST_PER USA_SEAHGT USA_SEARAD_NE USA_SEARAD_SE USA_SEARAD_SW USA_SEARAD_NW STORM_SPEED STORM_DIR
2021358S09130 2022 109 SI WA SETH 2021-12-23 12:00:00 NR -8.70000 130.000 15 1004 bom main 144 144 ______O_______ -5 -8.70000 130.000 20 15 1004 90 1008 3 7 40 40 5 188
2021358S09130 2022 109 SI WA SETH 2021-12-23 15:00:00 NR -8.93500 129.955 main 157 157 ______P_______ -5 -8.93500 129.955 20 15 1004 90 1008 5 191
2021358S09130 2022 109 SI WA SETH 2021-12-23 18:00:00 NR -9.20000 129.900 15 1004 bom main 188 188 ______O_______ -5 -9.20000 129.900 20 15 1004 90 1008 3 7 40 40 6 191
2021358S09130 2022 109 SI WA SETH 2021-12-23 21:00:00 NR -9.50750 129.835 main 215 184 ______P_______ -5 -9.50750 129.835 20 15 1004 90 1008 6 189
2021358S09130 2022 109 SI WA SETH 2021-12-24 00:00:00 NR -9.80000 129.800 15 1004 bom main 184 162 ______O_______ -5 -9.80000 129.800 20 15 1004 1.00000 1.00000 90 1008 3 7 40 40 5 0
2021358S09130 2022 109 SI WA SETH 2021-12-24 03:00:00 NR -10.0225 129.827 main 162 138 ______P_______ -5 -10.0225 129.827 20 15 1003 90 1007 4 167
2021358S09130 2022 109 SI WA SETH 2021-12-24 06:00:00 NR -10.2000 129.900 15 1002 bom main 138 124 ______O_______ -5 -10.2000 129.900 20 15 1002 1.00000 1.00000 90 1006 3 7 40 40 4 151
2021358S09130 2022 109 SI WA SETH 2021-12-24 09:00:00 NR -10.3425 130.007 main 124 99 ______P_______ -5 -10.3425 130.007 20 15 1003 90 1007 4 147
2021358S09130 2022 109 SI WA SETH 2021-12-24 12:00:00 NR -10.5000 130.100 15 1004 bom main 99 79 ______O_______ -5 -10.5000 130.100 20 15 1004 1.00000 1.00000 90 1008 7 40 40 4 165
2021358S09130 2022 109 SI WA SETH 2021-12-24 15:00:00 NR -10.7350 130.115 main 79 46 ______P_______ -5 -10.7350 130.115 20 17 1002 94 1007 5 178
2021358S09130 2022 109 SI WA SETH 2021-12-24 18:00:00 NR -11.0000 130.100 20 1000 bom main 46 24 ______O_______ -5 -11.0000 130.100 20 20 1000 1.00000 1.00000 99 1006 3 7 45 45 5 0
2021358S09130 2022 109 SI WA SETH 2021-12-24 21:00:00 NR -11.2575 130.107 main 15 0 ______P_______ -5 -11.2575 130.107 20 22 1000 109 1006 5 178
2021358S09130 2022 109 SI WA SETH 2021-12-25 00:00:00 NR -11.5000 130.100 25 1000 bom main 0 0 ______O_______ -5 -11.5000 130.100 20 25 1000 1.50000 1.50000 119 1006 6 7 45 45 4 189
2021358S09130 2022 109 SI WA SETH 2021-12-25 03:00:00 NR -11.6925 130.035 main 15 10 ______P_______ -5 -11.6925 130.035 20 25 998 109 1005 4 193
2021358S09130 2022 109 SI WA SETH 2021-12-25 06:00:00 NR -11.9000 130.000 25 996 bom main 15 15 ______O_______ -5 -11.9000 130.000 20 25 996 2.00000 2.00000 99 1004 6 7 45 45 5 177
2021358S09130 2022 109 SI WA SETH 2021-12-25 09:00:00 NR -12.2150 130.070 main 44 31 ______P_______ -5 -12.2150 130.070 20 25 997 99 1004 6 162
2021358S09130 2022 109 SI WA SETH 2021-12-25 12:00:00 NR -12.5000 130.200 25 998 bom main 31 15 ______O_______ -5 -12.5000 130.200 20 25 998 2.00000 2.00000 99 1004 6 7 45 45 5 144
2021358S09130 2022 109 SI WA SETH 2021-12-25 15:00:00 NR -12.6000 130.358 main 11 0 ______P_______ -5 -12.6000 130.358 20 25 997 109 1004 4 124
2021358S09130 2022 109 SI WA SETH 2021-12-25 18:00:00 NR -12.7000 130.500 25 996 bom main 0 0 ______O_______ -5 -12.7000 130.500 20 25 996 119 1004 6 7 45 45 4 151
2021358S09130 2022 109 SI WA SETH 2021-12-25 21:00:00 NR -12.9850 130.572 main 0 0 ______P_______ -5 -12.9850 130.572 20 22 996 119 1005 6 171
2021358S09130 2022 109 SI WA SETH 2021-12-26 00:00:00 NR -13.3000 130.600 20 997 bom main 0 0 ______O_______ -5 -13.3000 130.600 20 20 997 119 1006 6 7 45 45 6 175
2021358S09130 2022 109 SI WA SETH 2021-12-26 03:00:00 NR -13.5300 130.608 main 0 0 ______P_______ -5 -13.5300 130.608 20 20 996 119 1005 4 0
2021358S09130 2022 109 SI WA SETH 2021-12-26 06:00:00 NR -13.7000 130.600 20 996 bom main 0 0 ______O_______ -5 -13.7000 130.600 20 20 996 119 1005 6 7 45 45 3 185
2021358S09130 2022 109 SI WA SETH 2021-12-26 09:00:00 NR -13.8225 130.600 main 0 0 ______P_______ -5 -13.8225 130.600 20 20 997 119 1005 2 172
2021358S09130 2022 109 SI WA SETH 2021-12-26 12:00:00 NR -13.9000 130.600 20 999 bom main 0 0 ______O_______ -5 -13.9000 130.600 20 20 999 119 1005 3 7 45 45 2 173
2021358S09130 2022 109 SI WA SETH 2021-12-26 15:00:00 NR -14.0025 130.623 main 0 0 ______P_______ -5 -14.0025 130.623 20 20 998 119 1004 1 0
2021358S09130 2022 109 SI WA SETH 2021-12-26 18:00:00 NR -14.0000 130.600 20 998 bom main 0 0 ______O_______ -5 -14.0000 130.600 20 20 998 119 1004 3 7 45 45 3 321
2021358S09130 2022 109 SI WA SETH 2021-12-26 21:00:00 NR -13.7650 130.427 main 0 0 ______P_______ -5 -13.7650 130.427 20 20 998 134 1005 6 330
2021358S09130 2022 109 SI WA SETH 2021-12-27 00:00:00 NR -13.5000 130.300 20 999 bom main 0 0 ______O_______ -5 -13.5000 130.300 20 20 999 150 1006 3 7 45 45 4 350
2021358S09130 2022 109 SI WA SETH 2021-12-27 03:00:00 NR -13.3974 130.360 main 0 0 ______P_______ -5 -13.3974 130.360 20 17 998 150 1004 3 71
2021358S09130 2022 109 SI WA SETH 2021-12-27 06:00:00 NR -13.4000 130.600 15 997 bom main 0 0 ______O_______ -5 -13.4000 130.600 20 15 997 150 1002 3 7 45 45 6 97
2021358S09130 2022 109 SI WA SETH 2021-12-27 09:00:00 NR -13.4775 130.990 main 0 0 ______P_______ -5 -13.4775 130.990 20 15 998 134 1003 9 103
2021358S09130 2022 109 SI WA SETH 2021-12-27 12:00:00 NR -13.6000 131.500 15 1000 bom main 0 0 ______O_______ -5 -13.6000 131.500 20 15 1000 119 1004 3 7 45 45 10 102
2021358S09130 2022 109 SI WA SETH 2021-12-27 15:00:00 NR -13.7000 132.035 main 0 0 ______P_______ -5 -13.7000 132.035 20 15 999 119 1004 11 101
2021358S09130 2022 109 SI WA SETH 2021-12-27 18:00:00 NR -13.8000 132.600 15 998 bom main 0 0 ______O_______ -5 -13.8000 132.600 20 15 998 119 1004 3 7 40 40 11 100
2021358S09130 2022 109 SI WA SETH 2021-12-27 21:00:00 NR -13.8920 133.105 main 0 0 ______P_______ -5 -13.8920 133.105 20 15 998 119 1004 11 101
2021358S09130 2022 109 SI WA SETH 2021-12-28 00:00:00 NR -14.0000 133.700 15 999 bom main 0 0 ______O_______ -5 -14.0000 133.700 20 15 999 119 1004 3 7 40 40 14 101
2021358S09130 2022 109 SI WA SETH 2021-12-28 03:00:00 NR -14.1503 134.527 main 0 0 ______P_______ -5 -14.1503 134.527 20 15 997 109 1002 17 100
2021358S09130 2022 109 SP EA SETH 2021-12-28 06:00:00 NR -14.3000 135.400 15 995 bom main 0 0 ______O_______ -5 -14.3000 135.400 20 15 995 99 1000 3 7 40 40 16 99
2021358S09130 2022 109 SP EA SETH 2021-12-28 09:00:00 NR -14.3846 136.130 main 31 11 ______P_______ -5 -14.3846 136.130 20 17 996 99 1001 14 98
2021358S09130 2022 109 SP EA SETH 2021-12-28 12:00:00 NR -14.5000 136.800 20 997 bom main 22 22 ______O_______ -5 -14.5000 136.800 20 20 997 99 1002 3 7 40 40 13 106
2021358S09130 2022 109 SP EA SETH 2021-12-28 15:00:00 NR -14.7495 137.427 main 62 62 ______P_______ -5 -14.7495 137.427 20 22 997 99 1003 14 112
2021358S09130 2022 109 SP EA SETH 2021-12-28 18:00:00 NR -15.0000 138.100 25 997 bom main 140 140 ______O_______ -5 -15.0000 138.100 20 25 997 99 1004 3 7 40 40 15 105
2021358S09130 2022 109 SP EA SETH 2021-12-28 21:00:00 NR -15.1225 138.920 main 177 177 ______P_______ -5 -15.1225 138.920 20 25 997 109 1004 17 97
2021358S09130 2022 109 SP EA SETH 2021-12-29 00:00:00 NR -15.2000 139.800 25 997 bom main 185 99 ______O_______ -5 -15.2000 139.800 20 25 997 119 1004 3 7 45 45 17 95
2021358S09130 2022 109 SP EA SETH 2021-12-29 03:00:00 NR -15.2770 140.635 main 99 10 ______P_______ -5 -15.2770 140.635 20 25 996 134 1003 17 97
2021358S09130 2022 109 SP EA SETH 2021-12-29 06:00:00 NR -15.4000 141.500 25 995 bom main 10 0 ______O_______ -5 -15.4000 141.500 20 25 995 150 1002 7 7 45 45 17 100
2021358S09130 2022 109 SP EA SETH 2021-12-29 09:00:00 NR -15.5664 142.376 main 0 0 ______P_______ -5 -15.5664 142.376 20 20 996 150 1003 19 105
2021358S09130 2022 109 SP EA SETH 2021-12-29 12:00:00 NR -15.9000 143.400 15 998 bom main 0 0 ______O_______ -5 -15.9000 143.400 20 15 998 150 1004 3 7 40 40 25 113
2021358S09130 2022 109 SP EA SETH 2021-12-29 15:00:00 NR -16.5669 144.792 main 0 0 ______P_______ -5 -16.5669 144.792 20 15 998 150 1003 29 117
2021358S09130 2022 109 SP EA SETH 2021-12-29 18:00:00 NR -17.2000 146.100 15 998 bom main 15 15 ______O_______ -5 -17.2000 146.100 20 15 998 150 1002 6 7 40 40 21 114
2021358S09130 2022 109 SP EA SETH 2021-12-29 21:00:00 NR -17.4229 146.819 main 74 74 ______P_______ -5 -17.4229 146.819 20 22 997 164 1003 13 104
2021358S09130 2022 109 SP EA SETH 2021-12-30 00:00:00 NR -17.5000 147.400 30 997 bom main 137 137 ______O_______ -5 -17.5000 147.400 20 30 997 1.50000 1.50000 179 1004 3 7 45 45 14 100
2021358S09130 2022 109 SP EA SETH 2021-12-30 03:00:00 NR -17.6654 148.292 main 212 212 ______P_______ -5 -17.6654 148.292 20 30 996 179 1003 17 100
2021358S09130 2022 109 SP EA SETH 2021-12-30 06:00:00 NR -17.8000 149.200 30 996 bom main 260 260 ______O_______ -5 -17.8000 149.200 20 30 996 1.50000 1.50000 179 1002 3 7 45 45 16 96
2021358S09130 2022 109 SP EA SETH 2021-12-30 09:00:00 NR -17.8345 149.946 main 298 298 ______P_______ -5 -17.8345 149.946 20 30 995 179 1003 13 94
2021358S09130 2022 109 SP EA SETH 2021-12-30 12:00:00 NR -17.9000 150.600 30 994 bom main 328 328 ______O_______ -5 -17.9000 150.600 20 30 994 2.00000 2.00000 179 1004 7 45 45 12 102
2021358S09130 2022 109 SP EA SETH 2021-12-30 15:00:00 NR -18.0820 151.193 main 352 352 ______P_______ -5 -18.0820 151.193 20 30 994 179 1003 12 114
2021358S09130 2022 109 SP EA SETH 2021-12-30 18:00:00 NR -18.4000 151.800 30 994 bom main 379 379 ______O_______ -5 -18.4000 151.800 20 30 994 2.50000 2.50000 179 1002 7 45 45 15 122
2021358S09130 2022 109 SP EA SETH 2021-12-30 21:00:00 NR -18.8927 152.549 main 417 417 ______P_______ -5 -18.8927 152.549 20 35 993 189 1004 17 125
2021358S09130 2022 109 SP EA SETH 2021-12-31 00:00:00 NR -19.4000 153.300 40 992 bom main 430 428 ______O_______ -5 -19.4000 153.300 30 40 992 3.00000 3.00000 30 119 119 119 39 199 1006 3 7 55 55 16 122
2021358S09130 2022 109 SP EA SETH 2021-12-31 03:00:00 NR -19.7298 153.953 main 456 448 ______P_______ -5 -19.7298 153.953 30 45 989 34 119 149 119 59 199 1005 13 118
2021358S09130 2022 109 SP EA SETH 2021-12-31 06:00:00 NR -20.0000 154.500 50 986 bom main 474 474 ______O_______ -5 -20.0000 154.500 30 50 986 3.00000 3.00000 39 119 179 119 79 50 199 1004 3 7 69 69 11 122
2021358S09130 2022 109 SP EA SETH 2021-12-31 09:00:00 NR -20.3148 154.953 main 499 493 ______P_______ -5 -20.3148 154.953 30 52 984 39 119 179 134 69 50 209 1005 10 129
2021358S09130 2022 109 SP EA SETH 2021-12-31 12:00:00 NR -20.6000 155.300 55 982 bom main 511 500 ______O_______ -5 -20.6000 155.300 30 55 982 3.00000 3.00000 39 119 179 150 59 50 219 1006 7 80 80 8 133
2021358S09130 2022 109 SP EA SETH 2021-12-31 15:00:00 NR -20.8222 155.543 main 500 490 ______P_______ -5 -20.8222 155.543 30 50 984 39 104 179 150 59 229 1006 6 131
2021358S09130 2022 109 SP EA SETH 2021-12-31 18:00:00 NR -21.0000 155.800 45 986 bom main 495 491 ______O_______ -5 -21.0000 155.800 30 45 986 2.50000 3.00000 39 90 179 150 59 239 1006 5 64 64 7 117
2021358S09130 2022 109 SP EA SETH 2021-12-31 21:00:00 NR -21.1501 156.228 main 499 499 ______P_______ -5 -21.1501 156.228 30 45 987 39 74 164 150 59 239 1007 9 110
2021358S09130 2022 109 SP EA SETH 2022-01-01 00:00:00 NR -21.3000 156.700 45 988 bom main 523 523 ______O_______ -5 -21.3000 156.700 30 45 988 2.00000 2.50000 39 59 150 150 59 239 1008 3 5 64 64 9 109
2021358S09130 2022 109 SP EA SETH 2022-01-01 03:00:00 NR -21.4399 157.108 main 543 542 ______P_______ -5 -21.4399 157.108 30 45 988 39 150 150 239 1007 8 118
2021358S09130 2022 109 SP EA SETH 2022-01-01 06:00:00 NR -21.7000 157.500 45 988 bom main 551 549 ______O_______ -5 -21.7000 157.500 21 45 988 1.50000 2.00000 39 150 150 239 1006 3 5 64 64 11 135
2021358S09130 2022 109 SP EA SETH 2022-01-01 09:00:00 NR -22.1901 157.922 main 551 548 ______P_______ -5 -22.1901 157.922 21 42 989 44 150 154 239 1006 13 146
2021358S09130 2022 109 SP EA SETH 2022-01-01 12:00:00 NR -22.8000 158.300 40 990 bom main 555 550 ______O_______ -5 -22.8000 158.300 21 40 990 1.50000 2.00000 50 150 159 239 1006 5 55 55 13 152
2021358S09130 2022 109 SP EA SETH 2022-01-01 15:00:00 NR -23.3474 158.595 main 560 552 ______P_______ -5 -23.3474 158.595 21 40 990 50 164 159 239 1005 13 159
2021358S09130 2022 109 SP EA SETH 2022-01-01 18:00:00 NR -24.0000 158.800 40 990 bom main 557 552 ______O_______ -5 -24.0000 158.800 21 40 990 1.50000 1.50000 50 179 159 239 1004 9 55 55 16 168
2021358S09130 2022 109 SP EA SETH 2022-01-01 21:00:00 NR -24.9374 158.967 main 564 563 ______P_______ -5 -24.9374 158.967 21 40 990 50 179 139 219 1003 18 174
2021358S09130 2022 109 SP EA SETH 2022-01-02 00:00:00 NR -25.8000 159.000 40 990 bom main 569 562 ______O_______ -5 -25.8000 159.000 71 40 990 50 50 179 119 79 199 1002 3 9 55 55 13 185
2021358S09130 2022 109 SP EA SETH 2022-01-02 03:00:00 NR -26.2400 158.838 main 557 528 ______P_______ -5 -26.2400 158.838 71 40 989 50 54 179 119 79 199 1001 8 207
2021358S09130 2022 109 SP EA SETH 2022-01-02 06:00:00 NR -26.5000 158.600 40 988 bom main 528 507 ______O_______ -5 -26.5000 158.600 71 40 988 50 59 179 119 79 199 1000 3 9 55 55 7 210
2021358S09130 2022 109 SP EA SETH 2022-01-02 09:00:00 NR -26.8224 158.465 main 507 478 ______P_______ -5 -26.8224 158.465 71 37 989 50 164 144 94 209 1001 7 204
2021358S09130 2022 109 SP EA SETH 2022-01-02 12:00:00 NR -27.1000 158.300 35 990 bom main 478 444 ______O_______ -5 -27.1000 158.300 71 35 990 50 150 170 110 219 1002 3 9 49 49 6 220
2021358S09130 2022 109 SP EA SETH 2022-01-02 15:00:00 NR -27.3151 158.008 main 444 410 ______P_______ -5 -27.3151 158.008 71 32 990 219 1002 7 233
2021358S09130 2022 109 SP EA SETH 2022-01-02 18:00:00 NR -27.5000 157.700 30 990 bom main 410 386 ______O_______ -5 -27.5000 157.700 70 30 990 219 1002 9 45 45 6 231
2021358S09130 2022 109 SP EA SETH 2022-01-02 21:00:00 NR -27.7150 157.455 main 386 364 ______P_______ -5 -27.7150 157.455 70 27 990 219 1002 5 221
2021358S09130 2022 109 SP EA SETH 2022-01-03 00:00:00 NR -27.9000 157.300 25 990 bom main 364 363 ______O_______ -5 -27.9000 157.300 70 25 990 219 1002 3 9 45 45 3 204
2021358S09130 2022 109 SP EA SETH 2022-01-03 03:00:00 NR -28.0299 157.292 main 363 362 ______P_______ -5 -28.0299 157.292 70 25 990 219 1002 2 172
2021358S09130 2022 109 SP EA SETH 2022-01-03 06:00:00 NR -28.1000 157.300 25 990 bom main 362 352 ______O_______ -5 -28.1000 157.300 70 25 990 219 1002 3 9 45 45 1 214
2021358S09130 2022 109 SP EA SETH 2022-01-03 09:00:00 NR -28.1223 157.210 main 352 333 ______P_______ -5 -28.1223 157.210 70 25 991 3 270
2021358S09130 2022 109 SP EA SETH 2022-01-03 12:00:00 NR -28.1000 157.000 25 992 bom main 333 293 ______O_______ -5 -28.1000 157.000 70 25 992 3 9 45 45 5 274
2021358S09130 2022 109 SP EA SETH 2022-01-03 15:00:00 NR -28.0804 156.592 main 293 255 ______P_______ -5 -28.0804 156.592 70 25 993 7 278
2021358S09130 2022 109 SP EA SETH 2022-01-03 18:00:00 NR -28.0000 156.200 25 994 bom main 255 245 ______O_______ -5 -28.0000 156.200 70 25 994 3 9 45 45 5 296
2021358S09130 2022 109 SP EA SETH 2022-01-03 21:00:00 NR -27.8448 156.055 main 249 239 ______P_______ -5 -27.8448 156.055 70 27 995 4 336
2021358S09130 2022 109 SP EA SETH 2022-01-04 00:00:00 NR -27.6000 156.000 30 996 bom main 244 244 ______O_______ -5 -27.6000 156.000 70 30 996 3 9 45 45 6 349
2021358S09130 2022 109 SP EA SETH 2022-01-04 03:00:00 NR -27.2424 155.930 main 252 252 ______P_______ -5 -27.2424 155.930 70 27 996 7 346
2021358S09130 2022 109 SP EA SETH 2022-01-04 06:00:00 NR -26.9000 155.800 25 996 bom main 255 230 ______O_______ -5 -26.9000 155.800 70 25 996 3 9 45 45 7 319
2021358S09130 2022 109 SP EA SETH 2022-01-04 09:00:00 NR -26.7428 155.447 main 222 203 ______P_______ -5 -26.7428 155.447 70 25 997 6 299
2021358S09130 2022 109 SP EA SETH 2022-01-04 12:00:00 NR -26.6000 155.200 25 998 bom main 205 205 ______O_______ -5 -26.6000 155.200 70 25 998 3 9 45 45 4 355
2021358S09130 2022 109 SP EA SETH 2022-01-04 15:00:00 NR -26.3077 155.406 main 229 229 ______P_______ -5 -26.3077 155.406 70 25 997 8 37
2021358S09130 2022 109 SP EA SETH 2022-01-04 18:00:00 NR -26.0000 155.700 25 996 bom main 256 247 ______O_______ -5 -26.0000 155.700 70 25 996 3 9 45 45 6 29
2021358S09130 2022 109 SP EA SETH 2022-01-04 21:00:00 NR -25.7849 155.730 main 247 240 ______P_______ -5 -25.7849 155.730 70 25 997 4 0
2021358S09130 2022 109 SP EA SETH 2022-01-05 00:00:00 NR -25.6000 155.700 25 998 bom main 240 237 ______O_______ -5 -25.6000 155.700 70 25 998 3 9 45 45 4 8
2021358S09130 2022 109 SP EA SETH 2022-01-05 03:00:00 NR -25.3699 155.795 main 245 242 ______P_______ -5 -25.3699 155.795 70 25 998 4 12
2021358S09130 2022 109 SP EA SETH 2022-01-05 06:00:00 NR -25.2000 155.800 25 998 bom main 242 222 ______O_______ -5 -25.2000 155.800 70 25 998 3 9 45 45 3 312
2021358S09130 2022 109 SP EA SETH 2022-01-05 09:00:00 NR -25.1702 155.545 main 212 182 ______P_______ -5 -25.1702 155.545 70 25 998 5 270
2021358S09130 2022 109 SP EA SETH 2022-01-05 12:00:00 NR -25.2000 155.200 25 998 bom main 182 152 ______O_______ -5 -25.2000 155.200 70 25 998 3 9 45 45 6 265
2021358S09130 2022 109 SP EA SETH 2022-01-05 15:00:00 NR -25.2150 154.935 main 152 132 ______P_______ -5 -25.2150 154.935 70 25 998 5 270
2021358S09130 2022 109 SP EA SETH 2022-01-05 18:00:00 NR -25.2000 154.700 25 998 bom main 132 111 ______O_______ -5 -25.2000 154.700 70 25 998 3 9 40 40 4 284
2021358S09130 2022 109 SP EA SETH 2022-01-05 21:00:00 NR -25.1149 154.492 main 111 90 ______P_______ -5 -25.1149 154.492 70 25 999 4 299
2021358S09130 2022 109 SP EA SETH 2022-01-06 00:00:00 NR -25.0000 154.300 25 1000 bom main 90 71 ______O_______ -5 -25.0000 154.300 70 25 1000 3 9 40 40 4 306
2021358S09130 2022 109 SP EA SETH 2022-01-06 03:00:00 NR -24.8699 154.115 main 71 55 ______P_______ -5 -24.8699 154.115 70 25 1000 4 299
2021358S09130 2022 109 SP EA SETH 2022-01-06 06:00:00 NR -24.8000 153.900 25 1000 bom main 55 23 ______O_______ -5 -24.8000 153.900 70 25 1000 3 9 40 40 5 268
2021358S09130 2022 109 SP EA SETH 2022-01-06 09:00:00 NR -24.8851 153.593 main 23 0 ______P_______ -5 -24.8851 153.593 70 22 1001 6 250
2021358S09130 2022 109 SP EA SETH 2022-01-06 12:00:00 NR -25.0000 153.300 20 1002 bom main 0 0 ______O_______ -5 -25.0000 153.300 70 20 1002 3 9 40 40 4 259
2021358S09130 2022 109 SP EA SETH 2022-01-06 15:00:00 NR -24.9624 153.150 main 10 10 ______P_______ -5 -24.9624 153.150 70 20 1002 3 270
2021358S09130 2022 109 SP EA SETH 2022-01-06 18:00:00 NR -25.0000 153.000 20 1002 bom main 15 11 ______O_______ -5 -25.0000 153.000 70 20 1002 1008 3 9 40 40 5 232
2021358S09130 2022 109 SP EA SETH 2022-01-06 21:00:00 NR -25.2500 152.750 20 1004 bom main 11 0 ______O_______ -5 -25.2500 152.750 70 20 1004 1009 3 7 40 40 7 222
2021358S09130 2022 109 SP EA SETH 2022-01-07 00:00:00 NR -25.5000 152.500 15 1004 bom main 0 0 ______O_______ -5 -25.5000 152.500 70 15 1004 1010 3 7 40 40 6 222
2021358S09130 2022 109 SP EA SETH 2022-01-07 03:00:00 NR -25.6761 152.324 main 0 0 ______P_______ -5 -25.6761 152.324 70 15 1004 1010 4 222
2021358S09130 2022 109 SP EA SETH 2022-01-07 06:00:00 NR -25.8000 152.200 15 1004 bom main 0 ______O_______ -5 -25.8000 152.200 70 15 1004 1010 3 7 45 45 3 222

About IBTrACS Database

This database is a web-friendly format of International Best Track Archive for Climate Stewardship (IBTrACS), a global best track data archive curated by NOAA dating back to 1842.

Updated: 2022-11-16